createdAt,value
2022-10-01T00:00:30.498Z,21.09
2022-10-01T00:01:35.089Z,21.1
2022-10-01T00:02:40.804Z,21.12
2022-10-01T00:03:45.361Z,21.13
2022-10-01T00:04:49.570Z,21.11
2022-10-01T00:05:53.782Z,21.13
2022-10-01T00:06:58.003Z,21.12
2022-10-01T00:08:02.207Z,21.1
2022-10-01T00:09:06.421Z,21.13
2022-10-01T00:10:10.623Z,21.13
2022-10-01T00:11:14.833Z,21.12
2022-10-01T00:12:19.059Z,21.08
2022-10-01T00:13:23.301Z,21.09
2022-10-01T00:14:27.563Z,21.06
2022-10-01T00:15:31.756Z,21.06
2022-10-01T00:16:36.021Z,21.04
2022-10-01T00:17:40.442Z,21.05
2022-10-01T00:18:44.632Z,21.04
2022-10-01T00:19:48.845Z,21.02
2022-10-01T00:20:53.136Z,21.02
2022-10-01T00:21:57.609Z,21.07
2022-10-01T00:23:01.822Z,21.06
2022-10-01T00:24:06.055Z,21.05
2022-10-01T00:25:10.263Z,21.04
2022-10-01T00:26:14.475Z,21.04
2022-10-01T00:27:18.751Z,21.04
2022-10-01T00:28:23.037Z,21.01
2022-10-01T00:29:27.724Z,21.03
2022-10-01T00:30:31.927Z,21.01
2022-10-01T00:31:42.777Z,20.99
2022-10-01T00:32:47.471Z,21.02
2022-10-01T00:33:51.807Z,21.01
2022-10-01T00:34:56.053Z,21.01
2022-10-01T00:36:00.281Z,21.01
2022-10-01T00:37:04.477Z,21.01
2022-10-01T00:38:08.708Z,21.04
2022-10-01T00:39:12.961Z,21.03
2022-10-01T00:40:17.186Z,21.01
2022-10-01T00:41:21.395Z,21.01
2022-10-01T00:42:25.588Z,21.03
2022-10-01T00:43:29.803Z,21.03
2022-10-01T00:44:34.100Z,21.01
2022-10-01T00:45:38.328Z,21.03
2022-10-01T00:46:42.790Z,21.01
2022-10-01T00:47:47.001Z,21
2022-10-01T00:48:51.241Z,20.99
2022-10-01T00:49:59.268Z,21.02
2022-10-01T00:51:03.630Z,21.02
2022-10-01T00:52:07.842Z,21
2022-10-01T00:53:12.032Z,21.01
2022-10-01T00:54:16.253Z,21
2022-10-01T00:55:20.460Z,21
2022-10-01T00:56:24.670Z,20.97
2022-10-01T00:57:28.875Z,20.99
2022-10-01T00:58:33.133Z,20.99
2022-10-01T00:59:37.449Z,20.99
2022-10-01T01:00:41.647Z,21.01
2022-10-01T01:01:45.932Z,21.01
2022-10-01T01:02:50.615Z,20.97
2022-10-01T01:03:54.877Z,20.98
2022-10-01T01:04:59.126Z,20.97
2022-10-01T01:06:03.593Z,20.98
2022-10-01T01:07:07.815Z,20.97
2022-10-01T01:08:12.026Z,21
2022-10-01T01:09:16.269Z,21.01
2022-10-01T01:10:20.530Z,21.02
2022-10-01T01:11:24.799Z,21.01
2022-10-01T01:12:29.005Z,21.01
2022-10-01T01:13:33.239Z,21
2022-10-01T01:14:37.476Z,20.97
2022-10-01T01:15:41.769Z,20.97
2022-10-01T01:16:46.182Z,20.98
2022-10-01T01:17:50.408Z,20.98
2022-10-01T01:18:54.638Z,20.98
2022-10-01T01:19:58.889Z,20.97
2022-10-01T01:21:03.441Z,20.95
2022-10-01T01:22:07.637Z,20.97
2022-10-01T01:23:12.878Z,20.97
2022-10-01T01:24:17.098Z,20.99
2022-10-01T01:25:21.324Z,21
2022-10-01T01:26:25.564Z,20.98
2022-10-01T01:27:29.752Z,21
2022-10-01T01:28:34.019Z,20.99
2022-10-01T01:29:38.248Z,20.95
2022-10-01T01:30:42.480Z,20.96
2022-10-01T01:31:46.909Z,20.95
2022-10-01T01:32:51.143Z,20.95
2022-10-01T01:33:55.349Z,20.98
2022-10-01T01:34:59.542Z,20.99
2022-10-01T01:36:03.736Z,20.99
2022-10-01T01:37:07.935Z,20.95
2022-10-01T01:38:12.157Z,20.97
2022-10-01T01:39:16.390Z,20.94
2022-10-01T01:40:20.585Z,20.92
2022-10-01T01:41:24.792Z,20.92
2022-10-01T01:42:29.050Z,20.97
2022-10-01T01:43:33.277Z,20.98
2022-10-01T01:44:37.492Z,20.98
2022-10-01T01:45:41.752Z,20.99
2022-10-01T01:46:46.199Z,20.99
2022-10-01T01:47:50.374Z,21
2022-10-01T01:48:54.585Z,21.02
2022-10-01T01:49:58.780Z,20.99
2022-10-01T01:51:02.993Z,20.99
2022-10-01T01:52:07.191Z,21
2022-10-01T01:53:11.431Z,21
2022-10-01T01:54:15.914Z,20.99
2022-10-01T01:55:20.112Z,20.99
2022-10-01T01:56:24.316Z,20.98
2022-10-01T01:57:28.527Z,21
2022-10-01T01:58:32.721Z,21.01
2022-10-01T01:59:37.028Z,21.01
2022-10-01T02:00:41.344Z,20.98
2022-10-01T02:01:45.598Z,20.99
2022-10-01T02:02:50.087Z,20.98
2022-10-01T02:03:54.509Z,20.97
2022-10-01T02:04:58.748Z,20.95
2022-10-01T02:06:02.965Z,20.97
2022-10-01T02:07:07.170Z,20.97
2022-10-01T02:08:11.393Z,20.98
2022-10-01T02:09:17.845Z,20.98
2022-10-01T02:10:22.060Z,20.97
2022-10-01T02:11:26.278Z,20.96
2022-10-01T02:12:30.459Z,20.93
2022-10-01T02:13:34.785Z,20.95
2022-10-01T02:14:38.979Z,20.95
2022-10-01T02:15:44.237Z,20.92
2022-10-01T02:16:48.643Z,20.93
2022-10-01T02:17:52.837Z,20.91
2022-10-01T02:18:57.081Z,20.88
2022-10-01T02:20:01.310Z,20.87
2022-10-01T02:21:05.550Z,20.91
2022-10-01T02:22:09.785Z,20.91
2022-10-01T02:23:14.031Z,20.89
2022-10-01T02:24:18.292Z,20.88
2022-10-01T02:25:22.526Z,20.89
2022-10-01T02:26:26.768Z,20.91
2022-10-01T02:27:31.030Z,20.89
2022-10-01T02:28:35.283Z,20.87
2022-10-01T02:29:41.768Z,20.87
2022-10-01T02:30:46.035Z,20.9
2022-10-01T02:31:50.477Z,20.88
2022-10-01T02:32:54.685Z,20.92
2022-10-01T02:33:58.896Z,20.91
2022-10-01T02:35:03.122Z,20.89
2022-10-01T02:36:07.325Z,20.88
2022-10-01T02:37:11.556Z,20.91
2022-10-01T02:38:15.736Z,20.91
2022-10-01T02:39:20.001Z,20.93
2022-10-01T02:40:24.188Z,20.9
2022-10-01T02:41:28.602Z,20.89
2022-10-01T02:42:32.930Z,20.87
2022-10-01T02:43:40.661Z,20.86
2022-10-01T02:44:46.801Z,20.91
2022-10-01T02:45:51.034Z,20.88
2022-10-01T02:46:55.415Z,20.9
2022-10-01T02:47:59.674Z,20.88
2022-10-01T02:49:03.911Z,20.91
2022-10-01T02:50:08.112Z,20.88
2022-10-01T02:51:12.337Z,20.91
2022-10-01T02:52:16.575Z,20.9
2022-10-01T02:53:20.807Z,20.89
2022-10-01T02:54:25.026Z,20.89
2022-10-01T02:55:29.383Z,20.88
2022-10-01T02:56:33.643Z,20.85
2022-10-01T02:57:37.882Z,20.89
2022-10-01T02:58:42.111Z,20.85
2022-10-01T02:59:46.329Z,20.85
2022-10-01T03:00:50.550Z,20.85
2022-10-01T03:01:54.844Z,20.86
2022-10-01T03:02:59.625Z,20.85
2022-10-01T03:04:04.092Z,20.86
2022-10-01T03:05:08.312Z,20.89
2022-10-01T03:06:12.523Z,20.9
2022-10-01T03:07:16.725Z,20.88
2022-10-01T03:08:20.950Z,20.88
2022-10-01T03:09:25.167Z,20.88
2022-10-01T03:10:29.473Z,20.88
2022-10-01T03:11:34.046Z,20.88
2022-10-01T03:12:39.173Z,20.87
2022-10-01T03:13:43.382Z,20.86
2022-10-01T03:14:47.610Z,20.87
2022-10-01T03:15:51.886Z,20.85
2022-10-01T03:16:56.207Z,20.83
2022-10-01T03:18:02.683Z,20.84
2022-10-01T03:19:06.908Z,20.85
2022-10-01T03:20:11.113Z,20.86
2022-10-01T03:21:15.319Z,20.87
2022-10-01T03:22:19.586Z,20.85
2022-10-01T03:23:23.795Z,20.88
2022-10-01T03:24:28.988Z,20.86
2022-10-01T03:25:33.195Z,20.87
2022-10-01T03:26:37.405Z,20.86
2022-10-01T03:27:41.635Z,20.88
2022-10-01T03:28:45.982Z,20.87
2022-10-01T03:29:50.213Z,20.87
2022-10-01T03:30:54.497Z,20.88
2022-10-01T03:31:58.816Z,20.89
2022-10-01T03:33:03.068Z,20.88
2022-10-01T03:34:07.329Z,20.89
2022-10-01T03:35:11.554Z,20.86
2022-10-01T03:36:15.747Z,20.86
2022-10-01T03:37:19.995Z,20.86
2022-10-01T03:38:24.205Z,20.84
2022-10-01T03:39:28.641Z,20.89
2022-10-01T03:40:32.918Z,20.88
2022-10-01T03:41:37.172Z,20.88
2022-10-01T03:42:41.406Z,20.88
2022-10-01T03:43:48.682Z,20.84
2022-10-01T03:44:52.882Z,20.84
2022-10-01T03:45:57.254Z,20.84
2022-10-01T03:47:01.663Z,20.82
2022-10-01T03:48:05.905Z,20.82
2022-10-01T03:49:10.127Z,20.85
2022-10-01T03:50:14.332Z,20.86
2022-10-01T03:51:19.921Z,20.85
2022-10-01T03:52:24.211Z,20.86
2022-10-01T03:53:28.643Z,20.82
2022-10-01T03:54:32.857Z,20.81
2022-10-01T03:55:37.064Z,20.8
2022-10-01T03:56:41.256Z,20.79
2022-10-01T03:57:45.516Z,20.78
2022-10-01T03:58:49.764Z,20.81
2022-10-01T03:59:53.975Z,20.8
2022-10-01T04:00:58.187Z,20.79
2022-10-01T04:02:02.423Z,20.8
2022-10-01T04:03:07.194Z,20.8
2022-10-01T04:04:11.848Z,20.78
2022-10-01T04:05:16.070Z,20.77
2022-10-01T04:06:20.333Z,20.77
2022-10-01T04:07:24.592Z,20.79
2022-10-01T04:08:28.807Z,20.81
2022-10-01T04:09:33.029Z,20.8
2022-10-01T04:10:37.226Z,20.79
2022-10-01T04:11:41.423Z,20.8
2022-10-01T04:12:45.634Z,20.78
2022-10-01T04:13:49.860Z,20.78
2022-10-01T04:14:54.073Z,20.78
2022-10-01T04:15:58.393Z,20.79
2022-10-01T04:17:02.870Z,20.78
2022-10-01T04:18:07.075Z,20.78
2022-10-01T04:19:11.538Z,20.78
2022-10-01T04:20:15.752Z,20.77
2022-10-01T04:21:19.949Z,20.78
2022-10-01T04:22:24.168Z,20.79
2022-10-01T04:23:28.399Z,20.81
2022-10-01T04:24:32.649Z,20.84
2022-10-01T04:25:36.864Z,20.81
2022-10-01T04:26:41.115Z,20.79
2022-10-01T04:27:45.387Z,20.79
2022-10-01T04:28:49.771Z,20.79
2022-10-01T04:29:53.978Z,20.78
2022-10-01T04:30:59.268Z,20.77
2022-10-01T04:32:03.643Z,20.8
2022-10-01T04:33:08.113Z,20.8
2022-10-01T04:34:12.337Z,20.82
2022-10-01T04:35:16.535Z,20.81
2022-10-01T04:36:20.754Z,20.82
2022-10-01T04:37:24.962Z,20.84
2022-10-01T04:38:29.151Z,20.83
2022-10-01T04:39:33.361Z,20.83
2022-10-01T04:40:37.580Z,20.82
2022-10-01T04:41:41.859Z,20.82
2022-10-01T04:42:46.122Z,20.81
2022-10-01T04:43:50.338Z,20.78
2022-10-01T04:44:54.581Z,20.78
2022-10-01T04:45:58.772Z,20.78
2022-10-01T04:47:03.138Z,20.77
2022-10-01T04:48:07.572Z,20.77
2022-10-01T04:49:11.790Z,20.77
2022-10-01T04:50:15.993Z,20.77
2022-10-01T04:51:20.237Z,20.76
2022-10-01T04:52:24.488Z,20.76
2022-10-01T04:53:28.703Z,20.78
2022-10-01T04:54:32.913Z,20.81
2022-10-01T04:55:37.173Z,20.83
2022-10-01T04:56:41.439Z,20.81
2022-10-01T04:57:45.675Z,20.77
2022-10-01T04:58:49.908Z,20.76
2022-10-01T04:59:54.146Z,20.78
2022-10-01T05:01:01.731Z,20.77
2022-10-01T05:02:07.461Z,20.79
2022-10-01T05:03:11.878Z,20.78
2022-10-01T05:04:16.101Z,20.78
2022-10-01T05:05:20.339Z,20.76
2022-10-01T05:06:24.583Z,20.77
2022-10-01T05:07:28.804Z,20.8
2022-10-01T05:08:33.043Z,20.77
2022-10-01T05:09:37.313Z,20.76
2022-10-01T05:10:41.527Z,20.78
2022-10-01T05:11:45.739Z,20.77
2022-10-01T05:12:49.937Z,20.75
2022-10-01T05:13:54.153Z,20.79
2022-10-01T05:14:58.393Z,20.83
2022-10-01T05:16:02.671Z,20.84
2022-10-01T05:17:07.250Z,20.82
2022-10-01T05:18:11.454Z,20.8
2022-10-01T05:19:15.660Z,20.78
2022-10-01T05:20:20.015Z,20.76
2022-10-01T05:21:24.238Z,20.75
2022-10-01T05:22:28.442Z,20.74
2022-10-01T05:23:32.669Z,20.74
2022-10-01T05:24:36.913Z,20.75
2022-10-01T05:25:41.144Z,20.74
2022-10-01T05:26:45.422Z,20.73
2022-10-01T05:27:49.637Z,20.73
2022-10-01T05:28:53.941Z,20.74
2022-10-01T05:29:58.166Z,20.74
2022-10-01T05:31:02.534Z,20.78
2022-10-01T05:32:07.155Z,20.76
2022-10-01T05:33:11.400Z,20.75
2022-10-01T05:34:15.787Z,20.76
2022-10-01T05:35:20.073Z,20.74
2022-10-01T05:36:24.384Z,20.73
2022-10-01T05:37:28.607Z,20.73
2022-10-01T05:38:32.823Z,20.73
2022-10-01T05:39:37.027Z,20.74
2022-10-01T05:40:41.291Z,20.77
2022-10-01T05:41:45.508Z,20.76
2022-10-01T05:42:49.810Z,20.79
2022-10-01T05:43:54.026Z,20.76
2022-10-01T05:44:58.340Z,20.78
2022-10-01T05:46:02.850Z,20.76
2022-10-01T05:47:07.379Z,20.76
2022-10-01T05:48:11.690Z,20.77
2022-10-01T05:49:16.067Z,20.78
2022-10-01T05:50:20.298Z,20.78
2022-10-01T05:51:24.563Z,20.78
2022-10-01T05:52:28.794Z,20.77
2022-10-01T05:53:33.112Z,20.76
2022-10-01T05:54:37.523Z,20.79
2022-10-01T05:55:41.776Z,20.78
2022-10-01T05:56:46.144Z,20.77
2022-10-01T05:57:50.388Z,20.78
2022-10-01T05:58:54.607Z,20.77
2022-10-01T05:59:58.806Z,20.77
2022-10-01T06:01:03.021Z,20.8
2022-10-01T06:02:07.460Z,20.76
2022-10-01T06:03:12.138Z,20.77
2022-10-01T06:04:16.839Z,20.78
2022-10-01T06:05:21.010Z,20.77
2022-10-01T06:06:25.292Z,20.77
2022-10-01T06:07:29.534Z,20.75
2022-10-01T06:08:33.757Z,20.74
2022-10-01T06:09:37.941Z,20.75
2022-10-01T06:10:42.171Z,20.77
2022-10-01T06:11:46.402Z,20.76
2022-10-01T06:12:50.658Z,20.79
2022-10-01T06:13:54.888Z,20.79
2022-10-01T06:14:59.090Z,20.78
2022-10-01T06:16:03.423Z,20.77
2022-10-01T06:17:08.053Z,20.78
2022-10-01T06:18:12.388Z,20.78
2022-10-01T06:19:16.633Z,20.78
2022-10-01T06:20:20.848Z,20.79
2022-10-01T06:21:25.077Z,20.79
2022-10-01T06:22:29.293Z,20.79
2022-10-01T06:23:33.560Z,20.8
2022-10-01T06:24:37.784Z,20.81
2022-10-01T06:25:42.015Z,20.81
2022-10-01T06:26:46.496Z,20.8
2022-10-01T06:27:50.797Z,20.8
2022-10-01T06:28:55.185Z,20.81
2022-10-01T06:29:59.406Z,20.83
2022-10-01T06:31:03.670Z,20.83
2022-10-01T06:32:08.043Z,20.85
2022-10-01T06:33:12.440Z,20.84
2022-10-01T06:34:16.719Z,20.85
2022-10-01T06:35:20.936Z,20.84
2022-10-01T06:36:25.260Z,20.85
2022-10-01T06:37:29.695Z,20.84
2022-10-01T06:38:33.999Z,20.85
2022-10-01T06:39:38.242Z,20.84
2022-10-01T06:40:42.510Z,20.84
2022-10-01T06:41:46.730Z,20.85
2022-10-01T06:42:54.848Z,20.85
2022-10-01T06:44:00.836Z,20.85
2022-10-01T06:45:05.099Z,20.85
2022-10-01T06:46:09.384Z,20.85
2022-10-01T06:47:13.962Z,20.86
2022-10-01T06:48:18.211Z,20.87
2022-10-01T06:49:22.458Z,20.86
2022-10-01T06:50:26.717Z,20.87
2022-10-01T06:51:31.145Z,20.87
2022-10-01T06:52:36.215Z,20.88
2022-10-01T06:53:40.485Z,20.88
2022-10-01T06:54:44.681Z,20.88
2022-10-01T06:55:48.905Z,20.88
2022-10-01T06:56:53.161Z,20.89
2022-10-01T06:57:57.398Z,20.89
2022-10-01T06:59:01.675Z,20.9
2022-10-01T07:00:05.878Z,20.9
2022-10-01T07:01:10.117Z,20.91
2022-10-01T07:02:14.687Z,20.91
2022-10-01T07:03:19.107Z,20.91
2022-10-01T07:04:23.327Z,20.92
2022-10-01T07:05:27.513Z,20.92
2022-10-01T07:06:31.785Z,20.92
2022-10-01T07:07:36.011Z,20.93
2022-10-01T07:08:40.230Z,21
2022-10-01T07:09:44.472Z,21.1
2022-10-01T07:10:48.671Z,21.09
2022-10-01T07:11:52.918Z,21.07
2022-10-01T07:12:57.160Z,21.05
2022-10-01T07:14:01.391Z,21.03
2022-10-01T07:15:05.621Z,21.04
2022-10-01T07:16:09.865Z,21.11
2022-10-01T07:17:14.282Z,21.06
2022-10-01T07:18:18.517Z,21.07
2022-10-01T07:19:23.763Z,21.03
2022-10-01T07:20:27.982Z,21.05
2022-10-01T07:21:32.521Z,21.07
2022-10-01T07:22:37.755Z,21.1
2022-10-01T07:23:41.963Z,21.09
2022-10-01T07:24:46.173Z,21.09
2022-10-01T07:25:50.372Z,21.11
2022-10-01T07:26:54.590Z,21.12
2022-10-01T07:27:58.924Z,21.11
2022-10-01T07:29:03.444Z,21.12
2022-10-01T07:30:07.664Z,21.12
2022-10-01T07:31:11.916Z,21.11
2022-10-01T07:32:16.320Z,21.12
2022-10-01T07:33:20.527Z,21.12
2022-10-01T07:34:24.766Z,21.12
2022-10-01T07:35:29.010Z,21.11
2022-10-01T07:36:33.241Z,21.1
2022-10-01T07:37:37.451Z,21.11
2022-10-01T07:38:41.648Z,21.12
2022-10-01T07:39:45.959Z,21.09
2022-10-01T07:40:50.187Z,21.07
2022-10-01T07:41:54.389Z,21.07
2022-10-01T07:42:58.623Z,21.05
2022-10-01T07:44:02.858Z,21.07
2022-10-01T07:45:07.057Z,21.1
2022-10-01T07:46:11.298Z,21.09
2022-10-01T07:47:15.709Z,21.06
2022-10-01T07:48:19.954Z,21.06
2022-10-01T07:49:24.168Z,21.06
2022-10-01T07:50:28.433Z,21.06
2022-10-01T07:51:32.898Z,21.05
2022-10-01T07:52:38.173Z,21.04
2022-10-01T07:53:42.379Z,21.05
2022-10-01T07:54:46.602Z,21.05
2022-10-01T07:55:50.849Z,21.04
2022-10-01T07:56:55.098Z,21.01
2022-10-01T07:57:59.321Z,20.99
2022-10-01T07:59:03.561Z,20.99
2022-10-01T08:00:07.762Z,20.97
2022-10-01T08:01:12.025Z,20.96
2022-10-01T08:02:16.491Z,20.97
2022-10-01T08:03:20.855Z,20.96
2022-10-01T08:04:25.090Z,20.98
2022-10-01T08:05:29.328Z,20.95
2022-10-01T08:06:33.539Z,20.96
2022-10-01T08:07:37.725Z,20.96
2022-10-01T08:08:41.937Z,20.95
2022-10-01T08:09:46.186Z,20.96
2022-10-01T08:10:50.408Z,20.94
2022-10-01T08:11:54.790Z,20.93
2022-10-01T08:12:59.003Z,20.89
2022-10-01T08:14:03.214Z,20.9
2022-10-01T08:15:07.467Z,20.91
2022-10-01T08:16:11.733Z,20.92
2022-10-01T08:17:16.218Z,20.91
2022-10-01T08:18:20.434Z,20.86
2022-10-01T08:19:24.634Z,20.87
2022-10-01T08:20:28.846Z,20.88
2022-10-01T08:21:33.298Z,20.85
2022-10-01T08:22:42.005Z,20.88
2022-10-01T08:23:46.514Z,20.89
2022-10-01T08:24:50.745Z,20.89
2022-10-01T08:25:54.962Z,20.89
2022-10-01T08:26:59.212Z,20.86
2022-10-01T08:28:03.508Z,20.86
2022-10-01T08:29:08.068Z,20.88
2022-10-01T08:30:19.427Z,20.87
2022-10-01T08:31:23.832Z,20.87
2022-10-01T08:32:28.224Z,20.89
2022-10-01T08:33:32.440Z,20.89
2022-10-01T08:34:36.697Z,20.88
2022-10-01T08:35:40.959Z,20.84
2022-10-01T08:36:45.235Z,20.86
2022-10-01T08:37:49.505Z,20.87
2022-10-01T08:38:53.725Z,20.86
2022-10-01T08:39:57.941Z,20.85
2022-10-01T08:41:02.156Z,20.84
2022-10-01T08:42:06.437Z,20.85
2022-10-01T08:43:10.677Z,20.84
2022-10-01T08:44:14.900Z,20.83
2022-10-01T08:45:19.122Z,20.84
2022-10-01T08:46:23.353Z,20.84
2022-10-01T08:47:27.594Z,20.85
2022-10-01T08:48:31.830Z,20.84
2022-10-01T08:49:36.035Z,20.86
2022-10-01T08:50:40.275Z,20.84
2022-10-01T08:51:44.521Z,20.82
2022-10-01T08:52:48.773Z,20.81
2022-10-01T08:53:53.019Z,20.81
2022-10-01T08:54:57.278Z,20.84
2022-10-01T08:56:01.502Z,20.84
2022-10-01T08:57:05.713Z,20.84
2022-10-01T08:58:09.946Z,20.86
2022-10-01T08:59:14.197Z,20.84
2022-10-01T09:00:18.480Z,20.84
2022-10-01T09:01:22.798Z,20.85
2022-10-01T09:02:27.211Z,20.81
2022-10-01T09:03:31.446Z,20.82
2022-10-01T09:04:35.747Z,20.83
2022-10-01T09:05:40.132Z,20.84
2022-10-01T09:06:44.408Z,20.85
2022-10-01T09:07:48.651Z,20.86
2022-10-01T09:08:52.881Z,20.85
2022-10-01T09:09:57.105Z,20.85
2022-10-01T09:11:01.342Z,20.86
2022-10-01T09:12:05.555Z,20.85
2022-10-01T09:13:09.778Z,20.79
2022-10-01T09:14:14.012Z,20.79
2022-10-01T09:15:18.229Z,20.81
2022-10-01T09:16:22.562Z,20.83
2022-10-01T09:17:27.027Z,20.85
2022-10-01T09:18:31.247Z,20.85
2022-10-01T09:19:35.441Z,20.85
2022-10-01T09:20:43.070Z,20.85
2022-10-01T09:21:47.319Z,20.84
2022-10-01T09:22:51.561Z,20.8
2022-10-01T09:23:55.789Z,20.81
2022-10-01T09:24:59.983Z,20.79
2022-10-01T09:26:04.195Z,20.76
2022-10-01T09:27:08.467Z,20.73
2022-10-01T09:28:15.115Z,20.73
2022-10-01T09:29:19.747Z,20.74
2022-10-01T09:30:24.032Z,20.7
2022-10-01T09:31:28.353Z,20.63
2022-10-01T09:32:32.756Z,20.62
2022-10-01T09:33:36.966Z,20.67
2022-10-01T09:34:41.406Z,20.69
2022-10-01T09:35:45.644Z,20.66
2022-10-01T09:36:49.872Z,20.67
2022-10-01T09:37:54.046Z,20.69
2022-10-01T09:38:58.267Z,20.7
2022-10-01T09:40:02.497Z,20.71
2022-10-01T09:41:06.739Z,20.65
2022-10-01T09:42:10.961Z,20.66
2022-10-01T09:43:15.172Z,20.67
2022-10-01T09:44:19.379Z,20.68
2022-10-01T09:45:23.592Z,20.68
2022-10-01T09:46:27.956Z,20.67
2022-10-01T09:47:32.169Z,20.67
2022-10-01T09:48:36.398Z,20.66
2022-10-01T09:49:40.601Z,20.63
2022-10-01T09:50:44.832Z,20.67
2022-10-01T09:51:49.047Z,20.67
2022-10-01T09:52:53.238Z,20.66
2022-10-01T09:53:57.480Z,20.66
2022-10-01T09:55:02.718Z,20.67
2022-10-01T09:56:06.920Z,20.68
2022-10-01T09:57:11.290Z,20.66
2022-10-01T09:58:15.557Z,20.65
2022-10-01T09:59:19.890Z,20.66
2022-10-01T10:00:27.168Z,20.6
2022-10-01T10:01:31.525Z,20.58
2022-10-01T10:02:36.688Z,20.6
2022-10-01T10:03:41.416Z,20.61
2022-10-01T10:04:45.844Z,20.61
2022-10-01T10:05:50.068Z,20.62
2022-10-01T10:06:54.308Z,20.62
2022-10-01T10:07:58.554Z,20.61
2022-10-01T10:09:02.831Z,20.62
2022-10-01T10:10:07.072Z,20.62
2022-10-01T10:11:11.312Z,20.59
2022-10-01T10:12:15.523Z,20.57
2022-10-01T10:13:19.741Z,20.57
2022-10-01T10:14:23.984Z,20.59
2022-10-01T10:15:31.231Z,20.61
2022-10-01T10:16:36.148Z,20.64
2022-10-01T10:17:41.329Z,20.6
2022-10-01T10:18:45.552Z,20.6
2022-10-01T10:19:50.032Z,20.59
2022-10-01T10:20:54.256Z,20.55
2022-10-01T10:21:58.483Z,20.55
2022-10-01T10:23:02.737Z,20.56
2022-10-01T10:24:06.978Z,20.58
2022-10-01T10:25:11.225Z,20.63
2022-10-01T10:26:15.436Z,20.68
2022-10-01T10:27:19.667Z,20.71
2022-10-01T10:28:24.038Z,20.72
2022-10-01T10:29:28.500Z,20.8
2022-10-01T10:30:32.749Z,20.85
2022-10-01T10:31:37.003Z,20.89
2022-10-01T10:32:41.427Z,20.9
2022-10-01T10:33:45.623Z,21.03
2022-10-01T10:34:49.865Z,21.06
2022-10-01T10:35:54.083Z,21.11
2022-10-01T10:36:58.359Z,21.17
2022-10-01T10:38:02.608Z,21.19
2022-10-01T10:39:06.878Z,21.21
2022-10-01T10:40:11.082Z,21.2
2022-10-01T10:41:15.357Z,21.19
2022-10-01T10:42:19.644Z,21.17
2022-10-01T10:43:23.909Z,21.14
2022-10-01T10:44:28.153Z,21.16
2022-10-01T10:45:32.374Z,21.15
2022-10-01T10:46:36.653Z,21.14
2022-10-01T10:47:47.588Z,21.16
2022-10-01T10:48:51.806Z,21.13
2022-10-01T10:49:56.018Z,21.14
2022-10-01T10:51:00.238Z,21.14
2022-10-01T10:52:04.465Z,21.14
2022-10-01T10:53:08.698Z,21.16
2022-10-01T10:54:13.080Z,21.14
2022-10-01T10:55:17.381Z,21.12
2022-10-01T10:56:21.607Z,21.11
2022-10-01T10:57:25.896Z,21.13
2022-10-01T10:58:30.222Z,21.15
2022-10-01T10:59:34.441Z,21.15
2022-10-01T11:00:38.629Z,21.13
2022-10-01T11:01:42.954Z,21.13
2022-10-01T11:02:47.607Z,21.12
2022-10-01T11:03:51.884Z,21.09
2022-10-01T11:04:56.158Z,21.09
2022-10-01T11:06:00.413Z,21.1
2022-10-01T11:07:04.643Z,21.1
2022-10-01T11:08:08.894Z,21.09
2022-10-01T11:09:20.134Z,21.08
2022-10-01T11:10:24.400Z,21.1
2022-10-01T11:11:28.612Z,21.1
2022-10-01T11:12:32.843Z,21.12
2022-10-01T11:13:37.079Z,21.13
2022-10-01T11:14:41.278Z,21.14
2022-10-01T11:15:45.627Z,21.08
2022-10-01T11:16:50.103Z,21.07
2022-10-01T11:17:54.381Z,21.07
2022-10-01T11:18:58.602Z,21.12
2022-10-01T11:20:02.859Z,21.1
2022-10-01T11:21:07.190Z,21.07
2022-10-01T11:22:11.460Z,21.12
2022-10-01T11:23:15.776Z,21.15
2022-10-01T11:24:20.098Z,21.14
2022-10-01T11:25:24.346Z,21.15
2022-10-01T11:26:28.607Z,21.16
2022-10-01T11:27:32.938Z,21.14
2022-10-01T11:28:37.187Z,21.17
2022-10-01T11:29:41.429Z,21.15
2022-10-01T11:30:45.674Z,21.19
2022-10-01T11:31:49.971Z,21.12
2022-10-01T11:32:54.433Z,21.16
2022-10-01T11:33:58.678Z,21.19
2022-10-01T11:35:02.865Z,21.17
2022-10-01T11:36:07.076Z,21.19
2022-10-01T11:37:11.319Z,21.19
2022-10-01T11:38:15.571Z,21.19
2022-10-01T11:39:19.999Z,21.19
2022-10-01T11:40:24.269Z,21.17
2022-10-01T11:41:28.533Z,21.14
2022-10-01T11:42:32.765Z,21.14
2022-10-01T11:43:37.086Z,21.11
2022-10-01T11:44:41.386Z,21.08
2022-10-01T11:45:45.801Z,21.07
2022-10-01T11:46:50.184Z,21.06
2022-10-01T11:47:54.658Z,21.08
2022-10-01T11:48:58.959Z,21.06
2022-10-01T11:50:03.203Z,21.07
2022-10-01T11:51:07.443Z,21.14
2022-10-01T11:52:11.724Z,21.1
2022-10-01T11:53:16.265Z,21.09
2022-10-01T11:54:20.591Z,21.13
2022-10-01T11:55:24.868Z,21.17
2022-10-01T11:56:29.188Z,21.16
2022-10-01T11:57:33.509Z,21.1
2022-10-01T11:58:37.772Z,21.13
2022-10-01T11:59:41.962Z,21.18
2022-10-01T12:00:46.270Z,21.21
2022-10-01T12:01:53.059Z,21.22
2022-10-01T12:02:57.549Z,21.22
2022-10-01T12:04:01.760Z,21.22
2022-10-01T12:05:06.048Z,21.22
2022-10-01T12:06:11.031Z,21.24
2022-10-01T12:07:16.555Z,21.23
2022-10-01T12:08:20.819Z,21.2
2022-10-01T12:09:25.026Z,21.22
2022-10-01T12:10:29.254Z,21.18
2022-10-01T12:11:33.598Z,21.19
2022-10-01T12:12:37.825Z,21.19
2022-10-01T12:13:42.068Z,21.21
2022-10-01T12:14:46.386Z,21.21
2022-10-01T12:15:50.671Z,21.22
2022-10-01T12:16:55.167Z,21.24
2022-10-01T12:18:00.433Z,21.2
2022-10-01T12:19:04.637Z,21.21
2022-10-01T12:20:08.913Z,21.15
2022-10-01T12:21:13.418Z,21.14
2022-10-01T12:22:20.281Z,21.15
2022-10-01T12:23:28.369Z,21.13
2022-10-01T12:24:32.574Z,21.17
2022-10-01T12:25:36.869Z,21.15
2022-10-01T12:26:41.136Z,21.2
2022-10-01T12:27:45.460Z,21.12
2022-10-01T12:28:52.865Z,21.1
2022-10-01T12:30:03.493Z,21.16
2022-10-01T12:31:07.847Z,21.12
2022-10-01T12:32:12.211Z,21.08
2022-10-01T12:33:16.629Z,21.05
2022-10-01T12:34:20.881Z,21
2022-10-01T12:35:25.111Z,20.99
2022-10-01T12:36:29.330Z,20.99
2022-10-01T12:37:33.763Z,21.05
2022-10-01T12:38:37.992Z,21.06
2022-10-01T12:39:42.196Z,21.1
2022-10-01T12:40:46.424Z,21.07
2022-10-01T12:41:51.690Z,21.06
2022-10-01T12:42:55.947Z,21.04
2022-10-01T12:44:06.555Z,21.04
2022-10-01T12:45:10.753Z,21.04
2022-10-01T12:46:15.051Z,21.03
2022-10-01T12:47:19.439Z,21
2022-10-01T12:48:23.650Z,20.99
2022-10-01T12:49:27.891Z,20.99
2022-10-01T12:50:32.131Z,21.01
2022-10-01T12:51:36.323Z,21.04
2022-10-01T12:52:40.518Z,21.02
2022-10-01T12:53:44.730Z,21.02
2022-10-01T12:54:48.975Z,21.03
2022-10-01T12:55:53.170Z,21.08
2022-10-01T12:56:57.393Z,21.1
2022-10-01T12:58:01.618Z,21.08
2022-10-01T12:59:05.809Z,21.05
2022-10-01T13:00:10.029Z,21.06
2022-10-01T13:01:14.356Z,21.07
2022-10-01T13:02:18.854Z,21.07
2022-10-01T13:03:23.331Z,21.09
2022-10-01T13:04:27.554Z,21.05
2022-10-01T13:05:31.794Z,21.08
2022-10-01T13:06:36.289Z,21.08
2022-10-01T13:07:41.425Z,21.08
2022-10-01T13:08:45.804Z,21.04
2022-10-01T13:09:50.034Z,21.05
2022-10-01T13:10:54.251Z,21.05
2022-10-01T13:11:58.483Z,21.1
2022-10-01T13:13:02.765Z,21.1
2022-10-01T13:14:07.061Z,21.12
2022-10-01T13:15:11.399Z,21.06
2022-10-01T13:16:15.962Z,21.08
2022-10-01T13:17:20.433Z,21.11
2022-10-01T13:18:24.706Z,21.2
2022-10-01T13:19:28.958Z,21.17
2022-10-01T13:20:33.223Z,21.15
2022-10-01T13:21:37.465Z,21.13
2022-10-01T13:22:41.738Z,21.14
2022-10-01T13:23:45.993Z,21.14
2022-10-01T13:24:50.266Z,21.11
2022-10-01T13:25:54.764Z,21.13
2022-10-01T13:26:59.071Z,21.12
2022-10-01T13:28:03.317Z,21.17
2022-10-01T13:29:07.844Z,21.21
2022-10-01T13:30:12.082Z,21.25
2022-10-01T13:31:16.567Z,21.23
2022-10-01T13:32:20.881Z,21.19
2022-10-01T13:33:25.063Z,21.17
2022-10-01T13:34:29.337Z,21.18
2022-10-01T13:35:36.016Z,21.19
2022-10-01T13:36:40.576Z,21.17
2022-10-01T13:37:44.942Z,21.14
2022-10-01T13:38:49.195Z,21.18
2022-10-01T13:39:53.399Z,21.19
2022-10-01T13:40:57.728Z,21.16
2022-10-01T13:42:01.966Z,21.15
2022-10-01T13:43:06.494Z,21.18
2022-10-01T13:44:11.146Z,21.21
2022-10-01T13:45:16.791Z,21.23
2022-10-01T13:46:21.590Z,21.26
2022-10-01T13:47:26.458Z,21.3
2022-10-01T13:48:30.707Z,21.32
2022-10-01T13:49:35.011Z,21.32
2022-10-01T13:50:39.207Z,21.34
2022-10-01T13:51:43.387Z,21.37
2022-10-01T13:52:47.572Z,21.41